Eganville, Canada
Current Conditions -  °F | °C
As of 9:00 AM on Friday 31 Oct 2014 (Local Time) from CYWA Reporting Station
Scattered Clouds Scattered Clouds  
Wind Chill: 32°   Ceiling: Unl
Heat Index: 36°   Visibility: 9mi
Dew Point: 23°   Wind: 5mph
Humidity: 60%   Direction: 30°NNE
Pressure: 30.08"   Gusts: NA
Location:  45.53°N, 77.1°W
Report Text: CYWA 311300Z AUTO 03004KT 360V070 9SM FEW058 FEW064 FEW071SCT081 02/M05 A3008 RMK SLP192
Loading
Personal Weather Stations






























Interactive Weather Map
Tropical Storm Tracking
New forecast layout! Learn more

10-Day Weather Forecast

Advertisements
Track Severe Weather on mobile